Time;durP1;ratioP1;P1;durP2;ratioP2;P2;SDS_P1;SDS_P2;PMS_P1;PMS_P2;Temp;Humidity;BMP_temperature;BMP_pressure;BME280_temperature;BME280_humidity;BME280_pressure;Samples;Min_cycle;Max_cycle;Signal;HPM_P1;HPM_P2
2022/07/09 00:01:01;;;;;;;3.55;1.60;;;;;;;21.83;54.10;100783.03;5027351;28;20144;-70
2022/07/09 00:03:27;;;;;;;2.83;1.73;;;;;;;21.74;54.37;100773.28;5045913;28;20029;-70
2022/07/09 00:05:52;;;;;;;3.45;1.60;;;;;;;21.67;55.16;100764.16;5046104;28;20059;-70
2022/07/09 00:08:18;;;;;;;2.53;1.60;;;;;;;21.67;55.02;100769.63;5042464;28;20033;-72
2022/07/09 00:10:43;;;;;;;4.78;1.58;;;;;;;21.66;55.73;100770.63;5027508;28;20091;-71
2022/07/09 00:13:09;;;;;;;4.10;1.80;;;;;;;21.65;56.22;100775.28;5032291;28;20090;-70
2022/07/09 00:15:35;;;;;;;2.38;1.95;;;;;;;21.69;56.52;100786.63;5031412;28;20050;-70
2022/07/09 00:18:01;;;;;;;3.25;1.52;;;;;;;21.59;57.03;100777.91;5027188;28;20025;-71
2022/07/09 00:20:26;;;;;;;3.58;1.83;;;;;;;21.59;56.97;100775.19;5040739;28;20052;-70
2022/07/09 00:22:52;;;;;;;3.33;1.90;;;;;;;21.68;56.97;100790.41;5040322;28;20035;-70
2022/07/09 00:25:17;;;;;;;2.60;1.42;;;;;;;21.63;56.74;100801.06;5026571;28;20171;-71
2022/07/09 00:27:43;;;;;;;3.50;2.08;;;;;;;21.53;56.89;100784.16;5041888;28;20120;-70
2022/07/09 00:30:08;;;;;;;2.75;1.40;;;;;;;21.59;56.91;100786.97;5045272;28;20067;-70
2022/07/09 00:32:34;;;;;;;3.20;1.63;;;;;;;21.56;57.17;100783.75;5026364;28;20464;-70
2022/07/09 00:34:59;;;;;;;2.30;1.63;;;;;;;21.54;57.65;100781.22;5028958;28;20041;-71
2022/07/09 00:37:25;;;;;;;3.20;1.77;;;;;;;21.36;58.33;100756.28;5032735;28;20042;-69
2022/07/09 00:39:50;;;;;;;2.30;1.60;;;;;;;21.41;58.69;100761.16;5025538;28;20033;-70
2022/07/09 00:42:16;;;;;;;11.52;9.52;;;;;;;21.47;58.88;100776.75;5033589;28;20042;-69
2022/07/09 00:44:41;;;;;;;6.25;3.33;;;;;;;21.20;59.37;100736.56;5029590;28;20059;-69
2022/07/09 00:47:08;;;;;;;2.42;1.85;;;;;;;21.41;59.35;100775.63;5040177;28;20575;-70
2022/07/09 00:49:41;;;;;;;2.63;1.77;;;;;;;21.31;59.52;100753.28;5025194;28;20056;-71
2022/07/09 00:52:11;;;;;;;2.88;2.00;;;;;;;21.30;59.92;100764.38;5026093;28;20119;-69
2022/07/09 00:54:37;;;;;;;4.40;1.77;;;;;;;21.21;60.03;100747.28;5025548;28;20044;-70
2022/07/09 00:57:06;;;;;;;4.20;1.63;;;;;;;21.23;60.19;100767.03;5025250;28;20045;-70
2022/07/09 00:59:32;;;;;;;2.83;1.90;;;;;;;21.11;60.45;100741.28;5026373;28;20037;-70
2022/07/09 01:02:00;;;;;;;2.08;1.50;;;;;;;21.19;60.30;100765.75;5026181;28;20357;-71
2022/07/09 01:04:25;;;;;;;4.57;1.67;;;;;;;21.23;60.67;100775.22;5025671;28;20031;-71
2022/07/09 01:06:51;;;;;;;2.47;1.52;;;;;;;21.11;60.91;100749.47;5026510;28;20033;-70
2022/07/09 01:09:17;;;;;;;2.70;1.80;;;;;;;21.06;60.56;100745.63;5025939;28;20033;-71
2022/07/09 01:11:42;;;;;;;1.85;1.52;;;;;;;21.16;60.70;100768.84;5024671;28;20065;-68
2022/07/09 01:14:07;;;;;;;2.55;1.67;;;;;;;21.17;60.72;100767.81;5036076;28;20033;-70
2022/07/09 01:16:39;;;;;;;6.90;1.80;;;;;;;21.12;60.85;100755.78;5040329;28;20024;-70
2022/07/09 01:19:06;;;;;;;4.68;1.77;;;;;;;21.06;61.04;100767.47;5024856;28;20037;-69
2022/07/09 01:21:32;;;;;;;4.72;1.92;;;;;;;21.03;60.82;100757.78;5032207;28;20103;-70
2022/07/09 01:23:57;;;;;;;5.43;2.25;;;;;;;20.97;60.89;100761.28;5024156;28;20474;-70
2022/07/09 01:26:23;;;;;;;2.60;2.22;;;;;;;20.86;61.12;100750.78;5026239;28;20029;-70
2022/07/09 01:28:49;;;;;;;3.17;2.05;;;;;;;20.87;61.26;100762.56;5040600;28;20044;-70
2022/07/09 01:31:15;;;;;;;2.47;1.80;;;;;;;20.77;61.28;100760.13;5041587;28;20033;-71
2022/07/09 01:33:41;;;;;;;2.20;1.58;;;;;;;20.76;61.48;100766.59;5028451;28;20052;-71
2022/07/09 01:36:07;;;;;;;2.75;1.58;;;;;;;20.45;61.79;100735.13;5027493;28;20044;-70
2022/07/09 01:38:33;;;;;;;4.07;1.70;;;;;;;20.62;61.90;100758.44;5027917;28;20045;-70
2022/07/09 01:40:58;;;;;;;2.40;1.88;;;;;;;20.60;62.04;100760.53;5036250;28;20036;-71
2022/07/09 01:43:24;;;;;;;4.55;2.03;;;;;;;20.38;62.09;100728.75;5044796;28;20175;-68
2022/07/09 01:45:49;;;;;;;3.83;1.80;;;;;;;20.47;62.80;100758.44;5027341;28;20468;-71
2022/07/09 01:48:15;;;;;;;3.05;1.77;;;;;;;20.35;62.62;100756.38;5036829;28;20044;-70
2022/07/09 01:50:41;;;;;;;4.95;1.92;;;;;;;20.33;62.73;100763.88;5026834;28;20596;-71
2022/07/09 01:53:06;;;;;;;5.43;2.13;;;;;;;20.19;62.91;100750.06;5030408;28;20044;-71
2022/07/09 01:55:32;;;;;;;2.83;1.90;;;;;;;20.10;63.01;100743.00;5028266;28;20041;-70
2022/07/09 01:57:57;;;;;;;4.85;1.90;;;;;;;20.12;63.38;100751.81;5028672;28;20025;-71
2022/07/09 02:00:23;;;;;;;4.28;2.15;;;;;;;20.01;63.50;100738.63;5033128;28;20047;-71
2022/07/09 02:02:49;;;;;;;7.32;2.00;;;;;;;20.01;63.62;100749.53;5048559;28;20082;-70
2022/07/09 02:05:15;;;;;;;2.95;1.73;;;;;;;19.93;63.57;100748.78;5048418;28;20044;-71
2022/07/09 02:07:41;;;;;;;6.93;1.90;;;;;;;19.75;63.88;100738.22;5049871;28;20025;-71
2022/07/09 02:10:07;;;;;;;1.77;1.67;;;;;;;19.75;63.97;100753.69;5033362;28;20255;-72
2022/07/09 02:12:33;;;;;;;2.42;1.70;;;;;;;19.64;64.28;100745.97;5030153;28;20026;-70
2022/07/09 02:14:58;;;;;;;3.67;1.77;;;;;;;19.54;64.27;100739.91;5029160;28;20038;-71
2022/07/09 02:17:24;;;;;;;7.78;2.08;;;;;;;19.62;63.77;100756.16;5030055;28;20022;-70
2022/07/09 02:19:50;;;;;;;4.07;1.98;;;;;;;19.58;63.93;100749.41;5037046;28;20034;-71
2022/07/09 02:22:15;;;;;;;2.95;1.95;;;;;;;19.52;64.07;100750.13;5029306;28;20033;-70
2022/07/09 02:24:41;;;;;;;3.10;1.90;;;;;;;19.39;64.22;100736.28;5026974;28;20025;-70
2022/07/09 02:27:06;;;;;;;3.92;1.92;;;;;;;19.37;64.21;100736.47;5029591;28;20041;-71
2022/07/09 02:29:32;;;;;;;5.03;2.28;;;;;;;19.37;64.37;100741.91;5030250;28;20037;-72
2022/07/09 02:31:58;;;;;;;1.65;1.55;;;;;;;19.32;64.78;100752.47;5028956;28;20042;-69
2022/07/09 02:34:24;;;;;;;2.95;2.10;;;;;;;19.28;65.36;100751.13;5027207;28;20041;-72
2022/07/09 02:36:50;;;;;;;3.30;2.13;;;;;;;19.18;65.55;100747.78;5045086;28;20446;-70
2022/07/09 02:39:16;;;;;;;2.55;1.80;;;;;;;19.18;65.86;100753.22;5030794;28;20053;-72
2022/07/09 02:41:41;;;;;;;5.15;2.25;;;;;;;19.08;65.97;100738.13;5027522;28;20123;-71
2022/07/09 02:44:07;;;;;;;5.93;2.42;;;;;;;19.10;65.98;100747.84;5029520;28;20472;-70
2022/07/09 02:46:32;;;;;;;5.03;2.40;;;;;;;19.14;66.46;100756.47;5027120;28;20037;-71
2022/07/09 02:48:57;;;;;;;3.78;2.05;;;;;;;19.08;66.30;100752.59;5030521;28;20540;-70
2022/07/09 02:51:23;;;;;;;3.65;2.20;;;;;;;19.03;66.06;100751.44;5029016;28;20037;-70
2022/07/09 02:53:48;;;;;;;4.07;1.83;;;;;;;19.04;66.69;100762.13;5030439;28;20037;-72
2022/07/09 02:56:14;;;;;;;3.42;2.10;;;;;;;19.03;66.74;100763.19;5025982;28;20098;-71
2022/07/09 02:58:40;;;;;;;2.80;1.92;;;;;;;18.84;66.78;100741.88;5041484;28;20033;-71
2022/07/09 03:01:05;;;;;;;4.35;1.95;;;;;;;18.97;66.55;100768.47;5039667;28;20076;-73
2022/07/09 03:03:35;;;;;;;2.60;2.08;;;;;;;18.94;66.77;100769.66;5030751;28;20025;-72
2022/07/09 03:06:02;;;;;;;4.97;2.20;;;;;;;18.91;66.78;100774.59;5039998;28;20041;-71
2022/07/09 03:08:28;;;;;;;4.35;2.10;;;;;;;18.83;67.08;100764.59;5029759;28;20040;-71
2022/07/09 03:10:53;;;;;;;5.50;1.88;;;;;;;18.75;67.04;100751.06;5027706;28;20053;-71
2022/07/09 03:13:20;;;;;;;4.20;2.10;;;;;;;18.82;67.05;100762.06;5040458;28;20102;-71
2022/07/09 03:15:45;;;;;;;6.65;2.00;;;;;;;18.83;66.83;100771.94;5033321;28;20067;-70
2022/07/09 03:18:10;;;;;;;4.68;1.80;;;;;;;18.60;67.10;100741.13;5030928;28;20041;-70
2022/07/09 03:20:36;;;;;;;3.47;2.08;;;;;;;18.71;67.40;100766.03;5030694;28;20419;-70
2022/07/09 03:23:05;;;;;;;6.50;2.05;;;;;;;18.65;67.59;100766.75;5029227;28;20033;-71
2022/07/09 03:25:31;;;;;;;4.25;2.28;;;;;;;18.67;67.81;100769.28;5026573;28;20037;-71
2022/07/09 03:27:57;;;;;;;3.47;1.90;;;;;;;18.63;67.94;100773.38;5025635;28;20053;-72
2022/07/09 03:30:23;;;;;;;3.70;2.25;;;;;;;18.64;68.43;100773.16;5027560;28;20472;-71
2022/07/09 03:32:49;;;;;;;3.47;1.75;;;;;;;18.55;68.60;100752.50;5035022;28;20475;-72
2022/07/09 03:35:15;;;;;;;5.18;2.70;;;;;;;18.64;68.39;100769.63;5045982;28;20037;-71
2022/07/09 03:37:40;;;;;;;3.45;2.20;;;;;;;18.60;68.61;100760.13;5036849;28;20398;-71
2022/07/09 03:40:06;;;;;;;5.00;2.35;;;;;;;18.59;68.94;100762.00;5029353;28;20441;-71
2022/07/09 03:42:32;;;;;;;6.90;2.42;;;;;;;18.71;68.54;100771.47;5031348;28;20032;-72
2022/07/09 03:44:57;;;;;;;3.53;2.10;;;;;;;18.66;68.83;100753.97;5027959;28;20017;-71
2022/07/09 03:47:23;;;;;;;2.45;1.98;;;;;;;18.80;68.45;100762.25;5030384;28;20128;-72
2022/07/09 03:49:49;;;;;;;2.80;1.95;;;;;;;18.90;67.94;100773.78;5038010;28;20028;-71
2022/07/09 03:52:14;;;;;;;2.85;1.88;;;;;;;18.91;67.74;100764.59;5045153;28;20135;-70
2022/07/09 03:54:39;;;;;;;5.70;2.17;;;;;;;18.85;66.65;100726.38;5034751;28;20037;-71
2022/07/09 03:57:05;;;;;;;10.50;2.50;;;;;;;19.10;66.74;100764.16;5028094;28;20025;-70
2022/07/09 03:59:31;;;;;;;5.82;2.25;;;;;;;19.17;66.24;100765.13;5042628;28;20029;-72
2022/07/09 04:01:56;;;;;;;4.82;2.17;;;;;;;19.39;65.44;100764.34;5048159;28;20710;-71
2022/07/09 04:04:22;;;;;;;4.80;2.28;;;;;;;19.46;65.24;100767.16;5048007;28;20032;-69
2022/07/09 04:06:47;;;;;;;2.63;1.88;;;;;;;19.51;64.47;100756.59;5035802;28;20029;-71
2022/07/09 04:09:12;;;;;;;4.35;2.25;;;;;;;19.58;64.08;100757.56;5036294;28;20028;-71
2022/07/09 04:11:39;;;;;;;3.10;2.08;;;;;;;19.67;63.33;100754.59;5045783;28;20490;-70
2022/07/09 04:14:04;;;;;;;3.88;2.15;;;;;;;19.69;62.96;100746.25;5038458;28;20026;-71
2022/07/09 04:16:30;;;;;;;3.95;1.98;;;;;;;19.89;62.21;100771.94;5030306;28;20053;-71
2022/07/09 04:18:55;;;;;;;6.80;2.45;;;;;;;20.00;62.31;100772.31;5026948;28;20530;-70
2022/07/09 04:21:21;;;;;;;5.25;2.15;;;;;;;20.08;61.78;100766.81;5039319;28;20388;-71
2022/07/09 04:23:51;;;;;;;4.57;1.67;;;;;;;20.23;61.30;100768.75;5034962;28;20017;-72
2022/07/09 04:26:18;;;;;;;7.32;2.15;;;;;;;20.16;60.74;100744.16;5042127;28;20491;-71
2022/07/09 04:28:44;;;;;;;10.52;1.88;;;;;;;20.36;60.18;100761.63;5033906;28;20016;-70
2022/07/09 04:31:10;;;;;;;3.17;1.58;;;;;;;20.55;59.76;100771.97;5028250;28;20057;-70
2022/07/09 04:33:35;;;;;;;4.72;2.03;;;;;;;20.60;59.16;100758.63;5028202;28;20111;-71
2022/07/09 04:36:01;;;;;;;4.07;2.05;;;;;;;20.83;57.87;100766.72;5028792;28;20029;-72
2022/07/09 04:38:26;;;;;;;3.28;1.50;;;;;;;20.91;57.55;100775.63;5029305;28;20025;-71
2022/07/09 04:40:52;;;;;;;5.68;1.90;;;;;;;20.89;57.66;100771.41;5025378;28;20495;-71
2022/07/09 04:43:17;;;;;;;3.92;2.10;;;;;;;20.81;57.38;100746.94;5030280;28;20024;-70
2022/07/09 04:45:43;;;;;;;5.15;2.03;;;;;;;21.04;57.42;100781.28;5037131;28;20036;-70
2022/07/09 04:48:09;;;;;;;3.67;1.42;;;;;;;21.06;57.03;100770.19;5026199;28;20041;-70
2022/07/09 04:50:35;;;;;;;4.90;2.00;;;;;;;21.14;56.46;100773.66;5036771;28;20033;-71
2022/07/09 04:53:00;;;;;;;3.40;1.85;;;;;;;21.21;55.99;100762.78;5036942;28;20037;-70
2022/07/09 04:55:26;;;;;;;4.90;2.20;;;;;;;21.28;56.03;100772.75;5035265;28;20420;-70
2022/07/09 04:57:51;;;;;;;3.03;1.75;;;;;;;21.33;56.18;100764.00;5027412;28;20107;-70
2022/07/09 05:00:17;;;;;;;2.60;1.92;;;;;;;21.33;55.33;100748.47;5027621;28;20021;-71
2022/07/09 05:02:43;;;;;;;3.80;2.00;;;;;;;21.44;55.21;100760.78;5027545;28;20096;-70
2022/07/09 05:05:09;;;;;;;4.03;1.90;;;;;;;21.51;54.99;100758.94;5036758;28;20037;-70
2022/07/09 05:07:35;;;;;;;3.35;1.77;;;;;;;21.63;54.81;100771.03;5038038;28;20365;-70
2022/07/09 05:10:02;;;;;;;5.03;1.95;;;;;;;21.75;54.48;100772.22;5034142;28;20032;-69
2022/07/09 05:12:28;;;;;;;5.60;1.90;;;;;;;21.85;54.12;100780.94;5033851;28;20041;-70
2022/07/09 05:14:55;;;;;;;2.97;1.70;;;;;;;21.93;54.13;100773.44;5029406;28;20758;-71
2022/07/09 05:17:21;;;;;;;4.85;1.90;;;;;;;22.07;53.66;100778.00;5027426;28;20038;-70
2022/07/09 05:19:49;;;;;;;4.07;2.17;;;;;;;22.20;52.97;100769.06;5027223;28;20572;-71
2022/07/09 05:22:15;;;;;;;3.70;1.80;;;;;;;22.21;52.65;100757.06;5028291;28;20026;-68
2022/07/09 05:24:41;;;;;;;2.30;1.70;;;;;;;22.41;52.48;100777.22;5030457;28;20027;-71
2022/07/09 05:27:09;;;;;;;3.83;1.77;;;;;;;22.54;52.44;100781.97;5029923;28;20472;-70
2022/07/09 05:29:37;;;;;;;5.25;2.03;;;;;;;22.51;51.84;100742.19;5031711;28;20027;-71
2022/07/09 05:32:04;;;;;;;7.10;1.83;;;;;;;22.68;51.63;100765.44;5035933;28;20583;-70
2022/07/09 05:34:29;;;;;;;1.90;1.75;;;;;;;22.75;51.24;100766.31;5038837;28;20128;-71
2022/07/09 05:36:55;;;;;;;4.57;1.83;;;;;;;22.82;51.02;100767.19;5033859;28;20028;-71
2022/07/09 05:39:21;;;;;;;4.05;1.50;;;;;;;22.95;50.66;100769.16;5043478;28;20045;-73
2022/07/09 05:41:47;;;;;;;6.90;1.80;;;;;;;23.08;50.20;100771.94;5030602;28;20037;-70
2022/07/09 05:44:12;;;;;;;3.67;1.70;;;;;;;23.13;50.06;100774.91;5031314;28;20039;-71
2022/07/09 05:46:38;;;;;;;16.85;2.00;;;;;;;23.14;49.82;100757.41;5031048;28;20025;-71
2022/07/09 05:49:07;;;;;;;4.68;1.77;;;;;;;23.27;49.82;100769.28;5049673;28;20440;-71
2022/07/09 05:51:33;;;;;;;5.22;1.77;;;;;;;23.31;49.46;100753.31;5034152;28;20029;-71
2022/07/09 05:54:07;;;;;;;2.28;1.55;;;;;;;23.50;49.09;100757.97;5031379;28;20033;-71
2022/07/09 05:56:34;;;;;;;;;;;;;;;23.53;48.95;100758.41;5046357;28;20053;-71
2022/07/09 05:58:59;;;;;;;5.00;1.90;;;;;;;23.69;48.92;100754.44;5032954;28;19919;-71
2022/07/09 06:01:25;;;;;;;3.92;1.52;;;;;;;23.81;48.54;100755.50;5029755;28;20120;-71
2022/07/09 06:03:50;;;;;;;4.68;1.85;;;;;;;23.93;48.09;100759.31;5030854;28;20036;-71
2022/07/09 06:06:16;;;;;;;1.92;1.38;;;;;;;24.01;48.00;100761.88;5041721;28;20045;-70
2022/07/09 06:08:41;;;;;;;2.30;1.45;;;;;;;24.16;47.63;100762.50;5033678;28;20030;-71
2022/07/09 06:11:07;;;;;;;3.88;1.70;;;;;;;24.19;47.54;100762.91;5041120;28;20032;-71
2022/07/09 06:13:32;;;;;;;3.33;1.27;;;;;;;24.40;46.93;100770.91;5042110;28;20041;-70
2022/07/09 06:15:58;;;;;;;3.75;1.75;;;;;;;24.43;46.50;100762.25;5040955;28;20025;-70
2022/07/09 06:18:23;;;;;;;3.53;1.40;;;;;;;24.57;46.16;100767.72;5029175;28;20392;-70
2022/07/09 06:20:49;;;;;;;8.15;1.95;;;;;;;24.62;45.86;100768.75;5040139;28;20491;-71
2022/07/09 06:23:14;;;;;;;4.40;1.55;;;;;;;24.60;45.66;100773.59;5040894;28;20376;-71
2022/07/09 06:25:40;;;;;;;5.00;1.92;;;;;;;24.74;45.16;100775.31;5041335;28;20053;-72
2022/07/09 06:28:06;;;;;;;2.00;1.55;;;;;;;24.77;45.15;100774.03;5036385;28;20684;-70
2022/07/09 06:30:33;;;;;;;6.88;1.92;;;;;;;24.84;45.21;100763.88;5042557;28;20030;-71
2022/07/09 06:32:59;;;;;;;4.95;1.45;;;;;;;24.91;44.68;100749.06;5032151;28;20091;-71
2022/07/09 06:35:25;;;;;;;3.72;1.40;;;;;;;24.99;44.61;100740.59;5033569;28;20632;-72
2022/07/09 06:37:50;;;;;;;2.30;1.50;;;;;;;25.25;44.35;100756.97;5036838;28;20043;-72
2022/07/09 06:40:16;;;;;;;3.72;1.60;;;;;;;25.44;43.61;100761.50;5035212;28;20037;-72
2022/07/09 06:42:41;;;;;;;2.13;1.35;;;;;;;25.50;42.71;100748.81;5038051;28;20021;-71
2022/07/09 06:45:08;;;;;;;3.47;1.65;;;;;;;25.67;42.65;100760.97;5038887;28;20056;-71
2022/07/09 06:47:33;;;;;;;2.58;1.40;;;;;;;25.73;42.10;100749.09;5029809;28;20113;-71
2022/07/09 06:49:59;;;;;;;3.13;1.40;;;;;;;25.72;42.71;100745.50;5035566;28;20112;-71
2022/07/09 06:52:24;;;;;;;3.38;1.35;;;;;;;25.88;42.55;100749.59;5044354;28;20082;-72
2022/07/09 06:54:50;;;;;;;1.35;1.25;;;;;;;25.89;42.11;100734.81;5042270;28;20082;-71
2022/07/09 06:57:16;;;;;;;2.70;1.80;;;;;;;26.03;42.11;100747.41;5033289;28;20043;-72
2022/07/09 06:59:42;;;;;;;2.75;1.50;;;;;;;26.10;41.18;100740.78;5042205;28;20025;-71
2022/07/09 07:02:07;;;;;;;3.95;1.55;;;;;;;26.25;40.12;100748.69;5036231;28;20028;-71
2022/07/09 07:04:33;;;;;;;4.00;1.40;;;;;;;26.15;40.13;100734.59;5035437;28;20036;-71
2022/07/09 07:06:59;;;;;;;3.03;1.42;;;;;;;26.29;40.21;100739.75;5042597;28;20813;-71
2022/07/09 07:09:24;;;;;;;6.38;1.73;;;;;;;26.32;40.46;100736.56;5042743;28;20079;-71
2022/07/09 07:11:50;;;;;;;2.53;1.27;;;;;;;26.43;40.29;100748.69;5036912;28;20033;-72
2022/07/09 07:14:16;;;;;;;3.78;1.60;;;;;;;26.45;40.39;100743.81;5035926;28;20457;-71
2022/07/09 07:16:43;;;;;;;4.13;1.35;;;;;;;26.54;39.34;100742.47;5034140;28;20504;-74
2022/07/09 07:19:09;;;;;;;5.90;1.50;;;;;;;26.53;38.72;100746.25;5032267;28;20033;-71
2022/07/09 07:21:35;;;;;;;4.65;1.50;;;;;;;26.64;38.83;100737.31;5036317;28;20037;-71
2022/07/09 07:24:01;;;;;;;5.60;1.40;;;;;;;26.66;38.77;100735.16;5036687;28;20033;-71
2022/07/09 07:26:26;;;;;;;4.45;1.35;;;;;;;26.75;37.84;100736.53;5037505;28;20032;-70
2022/07/09 07:28:52;;;;;;;2.10;1.60;;;;;;;26.72;37.76;100739.75;5037297;28;20017;-72
2022/07/09 07:31:17;;;;;;;3.22;1.35;;;;;;;26.67;38.26;100742.34;5040484;28;20060;-72
2022/07/09 07:33:43;;;;;;;3.33;1.58;;;;;;;26.69;38.27;100731.94;5037148;28;20417;-71
2022/07/09 07:36:08;;;;;;;2.67;1.60;;;;;;;26.70;38.23;100739.16;5034881;28;20025;-72
2022/07/09 07:38:34;;;;;;;2.17;1.25;;;;;;;26.83;38.22;100741.75;5036959;28;20778;-72
2022/07/09 07:41:00;;;;;;;3.53;1.50;;;;;;;26.88;38.16;100741.03;5028722;28;20061;-72
2022/07/09 07:43:25;;;;;;;5.32;1.90;;;;;;;26.91;38.77;100743.31;5031871;28;20058;-71
2022/07/09 07:45:51;;;;;;;3.35;1.10;;;;;;;26.95;38.06;100728.06;5031519;28;20041;-71
2022/07/09 07:48:16;;;;;;;4.70;1.50;;;;;;;27.03;38.17;100738.72;5035409;28;20028;-71
2022/07/09 07:50:42;;;;;;;5.03;1.40;;;;;;;27.04;38.18;100730.25;5028759;28;20029;-72
2022/07/09 07:53:10;;;;;;;9.50;1.60;;;;;;;27.09;37.45;100730.41;5029428;28;21180;-70
2022/07/09 07:55:35;;;;;;;3.47;1.67;;;;;;;27.27;37.67;100733.13;5028676;28;20073;-72
2022/07/09 07:58:01;;;;;;;1.55;1.13;;;;;;;27.21;37.95;100747.00;5035158;28;20050;-71
2022/07/09 08:00:27;;;;;;;2.40;1.45;;;;;;;27.16;38.31;100744.91;5035214;28;20108;-70
2022/07/09 08:02:52;;;;;;;3.00;1.52;;;;;;;27.09;38.25;100741.41;5031103;28;20061;-71
2022/07/09 08:05:18;;;;;;;3.42;1.25;;;;;;;27.10;38.65;100737.59;5028411;28;20047;-71
2022/07/09 08:07:43;;;;;;;3.47;1.42;;;;;;;27.09;38.73;100746.94;5028244;28;20083;-72
2022/07/09 08:10:09;;;;;;;2.78;1.38;;;;;;;27.17;38.85;100732.81;5027860;28;20467;-72
2022/07/09 08:12:35;;;;;;;1.85;1.40;;;;;;;27.19;38.62;100729.84;5033692;28;20052;-71
2022/07/09 08:15:00;;;;;;;2.38;1.27;;;;;;;27.07;39.04;100749.06;5034131;28;20029;-72
2022/07/09 08:17:26;;;;;;;4.70;1.13;;;;;;;26.80;38.94;100709.16;5030115;28;20033;-69
2022/07/09 08:19:51;;;;;;;5.03;1.50;;;;;;;26.85;39.37;100736.84;5039252;28;20025;-71
2022/07/09 08:22:17;;;;;;;5.38;1.65;;;;;;;26.82;39.49;100736.47;5034987;28;20032;-71
2022/07/09 08:24:43;;;;;;;2.35;1.08;;;;;;;26.89;39.63;100740.81;5033151;28;20036;-70
2022/07/09 08:27:08;;;;;;;2.40;1.15;;;;;;;26.91;39.10;100722.16;5029330;28;20035;-71
2022/07/09 08:29:34;;;;;;;4.15;1.38;;;;;;;27.03;39.13;100731.31;5032256;28;20036;-72
2022/07/09 08:31:59;;;;;;;4.28;1.35;;;;;;;27.15;38.69;100723.13;5039975;28;20029;-71
2022/07/09 08:34:25;;;;;;;6.07;1.52;;;;;;;26.99;38.97;100723.75;5033113;28;20029;-71
2022/07/09 08:36:50;;;;;;;2.08;1.00;;;;;;;26.74;38.70;100699.06;5027913;28;20032;-72
2022/07/09 08:39:16;;;;;;;2.78;1.27;;;;;;;26.80;38.66;100730.34;5028890;28;20116;-70
2022/07/09 08:41:43;;;;;;;5.15;1.48;;;;;;;26.77;38.74;100715.13;5033178;28;20021;-71
2022/07/09 08:44:12;;;;;;;1.67;1.02;;;;;;;26.73;38.64;100704.81;5036005;28;20482;-71
2022/07/09 08:46:38;;;;;;;4.93;1.10;;;;;;;26.91;38.52;100722.16;5031380;28;20130;-71
2022/07/09 08:49:07;;;;;;;4.30;1.10;;;;;;;26.94;38.85;100715.34;5030542;28;20111;-71
2022/07/09 08:51:34;;;;;;;4.18;1.17;;;;;;;26.99;39.10;100708.09;5038227;28;20027;-71
2022/07/09 08:54:00;;;;;;;5.63;1.50;;;;;;;27.13;39.14;100709.56;5040714;28;20037;-71
2022/07/09 08:56:25;;;;;;;6.60;1.42;;;;;;;27.18;39.01;100709.69;5042813;28;20147;-71
2022/07/09 08:58:51;;;;;;;3.58;1.15;;;;;;;27.32;38.31;100724.19;5041039;28;20039;-71
2022/07/09 09:01:19;;;;;;;2.72;1.50;;;;;;;27.38;38.29;100709.47;5031513;28;20061;-71
2022/07/09 09:03:45;;;;;;;3.63;1.63;;;;;;;27.31;38.20;100692.19;5037198;28;20052;-71
2022/07/09 09:06:13;;;;;;;3.90;1.40;;;;;;;27.35;38.71;100691.50;5032746;28;20052;-71
2022/07/09 09:08:43;;;;;;;8.25;1.83;;;;;;;27.41;38.67;100704.34;5039354;28;20036;-71
2022/07/09 09:11:14;;;;;;;3.95;1.50;;;;;;;27.18;38.88;100689.59;5031032;28;20042;-71
2022/07/09 09:13:41;;;;;;;6.47;1.40;;;;;;;27.20;38.41;100693.78;5032879;28;20156;-71
2022/07/09 09:16:08;;;;;;;7.35;1.45;;;;;;;27.17;38.37;100702.53;5026947;28;20454;-71
2022/07/09 09:18:40;;;;;;;2.60;1.40;;;;;;;27.12;38.04;100685.88;5035712;28;20636;-71
2022/07/09 09:21:07;;;;;;;2.95;1.27;;;;;;;27.21;37.93;100698.22;5043173;28;20857;-72
2022/07/09 09:23:39;;;;;;;3.72;1.30;;;;;;;27.16;38.05;100700.84;5028196;28;20032;-71
2022/07/09 09:26:12;;;;;;;5.22;2.08;;;;;;;27.10;38.33;100690.75;5033032;28;20033;-71
2022/07/09 09:28:47;;;;;;;3.75;1.60;;;;;;;27.18;38.02;100687.66;5036506;28;20112;-71
2022/07/09 09:31:23;;;;;;;1.88;1.13;;;;;;;27.30;38.09;100688.59;5030533;28;20033;-72
2022/07/09 09:33:56;;;;;;;4.97;1.15;;;;;;;27.31;37.85;100672.91;5025233;28;20745;-70
2022/07/09 09:36:52;;;;;;;6.15;1.52;;;;;;;27.28;37.31;100681.66;5028800;28;20117;-70
2022/07/09 09:39:21;;;;;;;2.33;1.48;;;;;;;27.32;37.03;100694.72;5023663;28;20503;-71
2022/07/09 09:41:48;;;;;;;5.13;1.40;;;;;;;27.30;36.87;100677.56;5026569;28;20044;-70
2022/07/09 09:44:20;;;;;;;2.03;1.38;;;;;;;27.40;37.06;100679.78;5026264;28;20025;-71
2022/07/09 09:46:46;;;;;;;3.05;1.63;;;;;;;27.53;37.22;100685.91;5025847;28;20412;-70
2022/07/09 09:49:15;;;;;;;4.43;1.52;;;;;;;27.58;37.52;100680.53;5026208;28;20025;-72
2022/07/09 09:52:08;;;;;;;3.58;1.30;;;;;;;27.51;38.16;100688.06;5026196;28;20116;-71
2022/07/09 09:54:35;;;;;;;2.65;1.38;;;;;;;27.44;38.22;100683.75;5028219;28;20033;-71
2022/07/09 09:57:06;;;;;;;2.63;1.63;;;;;;;27.41;38.13;100673.19;5023954;28;20033;-72
2022/07/09 09:59:34;;;;;;;3.88;1.60;;;;;;;27.31;38.35;100682.00;5026368;28;20025;-71
2022/07/09 10:02:01;;;;;;;2.10;1.25;;;;;;;27.22;38.46;100674.28;5026235;28;20449;-73
2022/07/09 10:04:28;;;;;;;2.63;1.40;;;;;;;27.26;37.19;100670.00;5026400;28;20041;-72
2022/07/09 10:06:54;;;;;;;5.47;1.20;;;;;;;27.23;37.34;100665.81;5025704;28;20033;-71
2022/07/09 10:09:20;;;;;;;3.17;1.20;;;;;;;27.25;36.92;100657.31;5035722;28;20541;-72
2022/07/09 10:11:47;;;;;;;4.05;1.27;;;;;;;27.29;37.13;100655.78;5024844;28;20488;-69
2022/07/09 10:14:28;;;;;;;3.13;1.38;;;;;;;27.38;36.98;100663.47;5029336;28;20037;-71
2022/07/09 10:16:53;;;;;;;1.58;1.25;;;;;;;27.47;36.65;100634.47;5029489;28;20037;-71
2022/07/09 10:19:26;;;;;;;3.58;1.40;;;;;;;27.67;36.01;100656.22;5029827;28;20032;-72
2022/07/09 10:21:54;;;;;;;5.35;1.33;;;;;;;27.63;36.37;100664.13;5029646;28;20032;-70
2022/07/09 10:24:37;;;;;;;4.90;1.58;;;;;;;27.57;36.98;100656.78;5040881;28;20035;-71
2022/07/09 10:27:06;;;;;;;1.65;1.30;;;;;;;27.52;36.69;100653.91;5036891;28;20164;-70
2022/07/09 10:29:33;;;;;;;5.10;1.60;;;;;;;27.47;36.41;100650.19;5029563;28;20026;-71
2022/07/09 10:31:59;;;;;;;5.55;1.70;;;;;;;27.40;36.32;100650.28;5029263;28;20025;-71
2022/07/09 10:34:55;;;;;;;4.35;1.00;;;;;;;27.31;35.91;100646.19;5029586;28;20400;-70
2022/07/09 10:37:31;;;;;;;1.83;1.15;;;;;;;27.18;35.61;100649.09;5033896;28;20035;-72
2022/07/09 10:39:56;;;;;;;2.08;1.00;;;;;;;27.08;35.90;100634.25;5041754;28;20041;-71
2022/07/09 10:42:25;;;;;;;2.60;1.27;;;;;;;26.99;36.60;100632.88;5031059;28;20068;-72
2022/07/09 10:44:51;;;;;;;3.58;1.20;;;;;;;26.99;36.93;100636.47;5033480;28;20029;-71
2022/07/09 10:47:17;;;;;;;2.70;1.30;;;;;;;27.01;37.14;100637.06;5030884;28;20056;-70
2022/07/09 10:49:42;;;;;;;7.95;1.63;;;;;;;27.04;37.47;100633.84;5030783;28;20087;-70
2022/07/09 10:52:08;;;;;;;2.13;1.50;;;;;;;27.13;37.09;100631.59;5030893;28;20045;-72
2022/07/09 10:54:44;;;;;;;3.22;1.35;;;;;;;27.29;36.57;100626.31;5050576;28;20423;-71
2022/07/09 10:57:10;;;;;;;2.78;1.73;;;;;;;27.39;36.51;100622.97;5050365;28;20071;-71
2022/07/09 10:59:36;;;;;;;2.53;1.50;;;;;;;27.46;36.56;100621.78;5050351;28;20558;-71
2022/07/09 11:02:02;;;;;;;2.67;1.05;;;;;;;27.41;35.55;100590.50;5050206;28;20033;-71
2022/07/09 11:04:33;;;;;;;1.33;1.08;;;;;;;27.60;34.88;100603.94;5050265;28;20031;-71
2022/07/09 11:06:59;;;;;;;3.78;1.30;;;;;;;27.67;34.66;100595.56;5031010;28;20109;-71
2022/07/09 11:09:28;;;;;;;3.78;1.20;;;;;;;27.80;34.42;100604.47;5043216;28;20156;-71
2022/07/09 11:11:53;;;;;;;5.07;1.70;;;;;;;27.87;34.14;100591.41;5037801;28;20029;-71
2022/07/09 11:14:19;;;;;;;2.17;1.40;;;;;;;27.94;33.97;100596.78;5030212;28;20432;-72
2022/07/09 11:16:54;;;;;;;4.70;1.27;;;;;;;27.89;34.25;100607.72;5029947;28;20021;-72
2022/07/09 11:19:21;;;;;;;4.32;1.35;;;;;;;27.66;34.68;100600.25;5040511;28;20025;-72
2022/07/09 11:21:47;;;;;;;3.15;1.42;;;;;;;27.69;34.58;100609.94;5028732;28;20488;-70